Time;durP1;ratioP1;P1;durP2;ratioP2;P2;SDS_P1;SDS_P2;PMS_P1;PMS_P2;Temp;Humidity;BMP_temperature;BMP_pressure;BME280_temperature;BME280_humidity;BME280_pressure;Samples;Min_cycle;Max_cycle;Signal;HPM_P1;HPM_P2
2023/02/07 00:01:35;;;;;;;2.72;2.20;;;;;;;3.87;59.28;102322.50;10299254;28;20054;-46
2023/02/07 00:06:37;;;;;;;2.88;2.58;;;;;;;3.83;59.19;102329.59;10305515;28;20053;-46
2023/02/07 00:11:39;;;;;;;2.10;1.90;;;;;;;3.78;59.72;102318.28;10294199;28;20857;-52
2023/02/07 00:16:41;;;;;;;2.03;1.83;;;;;;;3.75;59.77;102331.50;10296558;28;20069;-46
2023/02/07 00:21:42;;;;;;;1.52;1.33;;;;;;;3.64;59.92;102333.47;10301303;28;20042;-46
2023/02/07 00:26:46;;;;;;;1.77;1.63;;;;;;;3.63;59.49;102353.66;10301218;28;20058;-45
2023/02/07 00:31:47;;;;;;;1.63;1.52;;;;;;;3.60;59.71;102348.44;10298262;28;20053;-46
2023/02/07 00:36:49;;;;;;;2.42;1.90;;;;;;;3.61;59.70;102338.81;10298401;28;20132;-46
2023/02/07 00:41:50;;;;;;;1.65;1.55;;;;;;;3.68;59.20;102341.31;10298268;28;20052;-47
2023/02/07 00:46:52;;;;;;;1.60;1.50;;;;;;;3.70;59.22;102349.19;10298197;28;20057;-47
2023/02/07 00:51:54;;;;;;;1.30;1.20;;;;;;;3.87;58.65;102347.09;10300751;28;20058;-47
2023/02/07 00:56:56;;;;;;;1.80;1.70;;;;;;;3.88;58.41;102335.66;10294926;28;20046;-47
2023/02/07 01:01:57;;;;;;;1.67;1.30;;;;;;;3.92;58.31;102339.09;10301393;28;20188;-46
2023/02/07 01:06:58;;;;;;;1.50;1.38;;;;;;;3.83;58.19;102334.03;10299022;28;20050;-47
2023/02/07 01:12:00;;;;;;;1.60;1.50;;;;;;;3.75;58.68;102328.88;10304098;28;20062;-48
2023/02/07 01:17:01;;;;;;;1.80;1.65;;;;;;;3.65;58.88;102330.81;10298842;28;20375;-48
2023/02/07 01:22:04;;;;;;;1.77;1.50;;;;;;;3.64;59.66;102344.03;10301174;28;20474;-47
2023/02/07 01:27:06;;;;;;;1.90;1.50;;;;;;;3.70;59.19;102334.22;10309389;28;20057;-46
2023/02/07 01:32:07;;;;;;;1.88;1.70;;;;;;;3.77;59.19;102335.00;10298085;28;20042;-46
2023/02/07 01:37:08;;;;;;;2.28;1.83;;;;;;;3.86;59.00;102334.81;10301140;28;21141;-47
2023/02/07 01:42:13;;;;;;;1.90;1.70;;;;;;;3.94;58.52;102336.44;10300517;28;20097;-46
2023/02/07 01:47:18;;;;;;;2.03;1.80;;;;;;;3.92;58.38;102332.94;10298435;28;20433;-46
2023/02/07 01:52:26;;;;;;;3.13;1.95;;;;;;;3.86;58.67;102329.56;10301749;28;20066;-46
2023/02/07 01:57:28;;;;;;;2.15;2.03;;;;;;;3.80;58.90;102331.41;10299127;28;21078;-46
2023/02/07 02:02:32;;;;;;;2.63;2.00;;;;;;;3.68;59.28;102345.72;10285031;28;20145;-46
2023/02/07 02:07:36;;;;;;;2.33;2.10;;;;;;;3.53;59.54;102342.44;10298471;28;20146;-47
2023/02/07 02:13:06;;;;;;;3.55;2.50;;;;;;;3.46;59.89;102339.94;10296359;28;20173;-46
2023/02/07 02:18:31;;;;;;;2.55;2.35;;;;;;;3.44;60.38;102342.59;10297346;28;20038;-46
2023/02/07 02:24:11;;;;;;;2.70;2.50;;;;;;;3.37;60.01;102333.06;10292543;28;20042;-47
2023/02/07 02:29:43;;;;;;;3.00;2.70;;;;;;;3.33;60.04;102348.06;10302075;28;20037;-47
2023/02/07 02:35:01;;;;;;;3.72;2.78;;;;;;;3.21;60.66;102347.38;10300928;28;20660;-47
2023/02/07 02:40:44;;;;;;;3.45;3.15;;;;;;;2.97;61.12;102312.66;10295646;28;20730;-47
2023/02/07 02:45:54;;;;;;;3.25;2.95;;;;;;;3.14;61.11;102344.00;10298250;28;20585;-47
2023/02/07 02:50:56;;;;;;;3.50;3.20;;;;;;;3.10;61.37;102340.53;10300255;28;20045;-47
2023/02/07 02:56:41;;;;;;;5.40;3.10;;;;;;;3.08;61.38;102342.31;10299680;28;20054;-47
2023/02/07 03:01:57;;;;;;;3.70;3.40;;;;;;;3.05;60.71;102334.47;10297145;28;20081;-47
2023/02/07 03:07:09;;;;;;;4.13;3.72;;;;;;;3.02;60.88;102352.94;10299931;28;20133;-47
2023/02/07 03:12:22;;;;;;;3.53;3.22;;;;;;;2.94;60.79;102336.38;10304749;28;20065;-47
2023/02/07 03:17:53;;;;;;;4.15;3.55;;;;;;;2.86;61.36;102326.00;10300639;28;20061;-47
2023/02/07 03:22:58;;;;;;;4.43;3.90;;;;;;;2.89;61.48;102317.19;10301732;28;20507;-47
2023/02/07 03:28:02;;;;;;;4.72;4.10;;;;;;;2.84;61.87;102314.63;10295315;28;20053;-47
2023/02/07 03:33:08;;;;;;;5.07;4.68;;;;;;;2.79;61.89;102319.97;10297359;28;20042;-47
2023/02/07 03:38:11;;;;;;;4.75;4.13;;;;;;;2.72;61.51;102320.94;10294250;28;20064;-47
2023/02/07 03:43:17;;;;;;;5.13;4.63;;;;;;;2.67;61.67;102328.00;10296170;28;20068;-47
2023/02/07 03:48:18;;;;;;;5.20;4.65;;;;;;;2.65;61.80;102329.81;10296168;28;20053;-46
2023/02/07 03:53:20;;;;;;;6.68;4.85;;;;;;;2.57;61.56;102321.16;10300171;28;20061;-47
2023/02/07 03:58:22;;;;;;;5.47;4.97;;;;;;;2.50;61.35;102322.13;10298271;28;20057;-47
2023/02/07 04:03:23;;;;;;;6.20;5.10;;;;;;;2.50;61.73;102323.00;10295749;28;20056;-47
2023/02/07 04:08:25;;;;;;;5.38;4.78;;;;;;;2.54;61.17;102326.44;10297133;28;20215;-46
2023/02/07 04:13:27;;;;;;;5.82;5.32;;;;;;;2.42;60.85;102322.25;10298697;28;20093;-46
2023/02/07 04:18:29;;;;;;;5.40;4.90;;;;;;;2.31;60.42;102319.72;10298163;28;20368;-46
2023/02/07 04:23:30;;;;;;;6.65;6.03;;;;;;;2.22;60.65;102317.22;10293941;28;20058;-45
2023/02/07 04:28:32;;;;;;;6.38;5.78;;;;;;;2.09;61.05;102327.03;10294163;28;20177;-45
2023/02/07 04:33:34;;;;;;;7.20;5.65;;;;;;;2.14;61.25;102332.22;10298706;28;20046;-46
2023/02/07 04:38:35;;;;;;;6.10;5.55;;;;;;;2.24;60.27;102334.72;10295291;28;20165;-48
2023/02/07 04:43:37;;;;;;;7.43;6.50;;;;;;;2.17;60.58;102337.44;10293052;28;20057;-46
2023/02/07 04:48:38;;;;;;;8.20;7.45;;;;;;;2.16;60.40;102340.97;10293151;28;20081;-45
2023/02/07 04:53:40;;;;;;;7.80;7.07;;;;;;;2.16;60.77;102336.56;10298079;28;20058;-46
2023/02/07 04:58:42;;;;;;;8.23;7.28;;;;;;;2.10;60.17;102337.53;10294281;28;20627;-46
2023/02/07 05:03:43;;;;;;;7.55;6.85;;;;;;;2.16;60.86;102333.94;10301107;28;20577;-46
2023/02/07 05:08:45;;;;;;;7.53;6.82;;;;;;;2.00;60.85;102327.13;10302723;28;20060;-48
2023/02/07 05:13:46;;;;;;;7.28;6.57;;;;;;;2.03;61.07;102354.25;10301221;28;20056;-47
2023/02/07 05:18:48;;;;;;;7.13;6.38;;;;;;;1.99;61.76;102360.41;10299265;28;20151;-46
2023/02/07 05:23:50;;;;;;;8.02;7.22;;;;;;;1.96;61.98;102349.94;10303627;28;20050;-46
2023/02/07 05:28:51;;;;;;;7.25;6.47;;;;;;;1.94;62.20;102351.72;10303835;28;20061;-46
2023/02/07 05:33:53;;;;;;;6.95;6.25;;;;;;;1.87;62.46;102356.16;10300408;28;20084;-46
2023/02/07 05:38:55;;;;;;;8.60;7.80;;;;;;;1.93;61.97;102363.09;10302023;28;20057;-46
2023/02/07 05:43:56;;;;;;;8.20;7.40;;;;;;;1.87;62.17;102360.53;10302262;28;20057;-47
2023/02/07 05:48:57;;;;;;;9.40;8.50;;;;;;;1.90;62.34;102360.50;10299592;28;20045;-46
2023/02/07 05:53:59;;;;;;;11.23;8.90;;;;;;;1.87;62.37;102361.41;10304046;28;20049;-47
2023/02/07 05:59:02;;;;;;;9.45;8.55;;;;;;;1.83;62.64;102364.97;10295837;28;20046;-48
2023/02/07 06:04:04;;;;;;;9.82;8.70;;;;;;;1.76;62.36;102377.28;10292209;28;20057;-45
2023/02/07 06:09:05;;;;;;;9.82;8.80;;;;;;;1.56;62.98;102377.47;10300971;28;20087;-49
2023/02/07 06:14:07;;;;;;;9.18;8.18;;;;;;;1.54;63.51;102378.38;10305116;28;20201;-45
2023/02/07 06:19:10;;;;;;;9.45;8.52;;;;;;;1.66;63.36;102388.75;10307496;28;20069;-45
2023/02/07 06:24:12;;;;;;;10.15;8.30;;;;;;;1.77;62.95;102392.16;10310809;28;20104;-45
2023/02/07 06:29:14;;;;;;;10.13;8.80;;;;;;;1.54;63.51;102383.63;10313629;28;20060;-45
2023/02/07 06:34:15;;;;;;;10.40;9.00;;;;;;;1.49;63.53;102393.31;10307272;28;20591;-46
2023/02/07 06:39:17;;;;;;;9.18;8.20;;;;;;;1.33;63.64;102400.41;10310238;28;20068;-47
2023/02/07 06:44:19;;;;;;;10.85;9.70;;;;;;;1.31;64.17;102408.28;10308870;28;20069;-46
2023/02/07 06:49:20;;;;;;;9.68;8.75;;;;;;;1.30;64.55;102406.53;10314418;28;20049;-46
2023/02/07 06:54:22;;;;;;;12.15;9.77;;;;;;;1.29;64.57;102431.06;10315511;28;20303;-46
2023/02/07 06:59:23;;;;;;;11.93;10.68;;;;;;;1.27;65.14;102427.56;10316569;28;20073;-47
2023/02/07 07:04:25;;;;;;;12.55;11.00;;;;;;;1.29;64.37;102446.81;10318063;28;20775;-46
2023/02/07 07:09:27;;;;;;;12.30;10.98;;;;;;;1.34;64.24;102450.25;10311255;28;20061;-46
2023/02/07 07:14:29;;;;;;;12.68;11.05;;;;;;;1.40;64.18;102465.97;10328118;23;20073;-69
2023/02/07 07:19:30;;;;;;;13.95;12.20;;;;;;;1.44;63.62;102481.69;10305282;28;20164;-69
2023/02/07 07:24:32;;;;;;;13.15;11.27;;;;;;;1.57;64.01;102488.59;10332375;28;20143;-71
2023/02/07 07:29:33;;;;;;;11.93;10.65;;;;;;;1.69;62.47;102491.13;10334125;28;20054;-70
2023/02/07 07:34:35;;;;;;;11.57;10.27;;;;;;;1.82;61.96;102488.41;10333366;28;20054;-69
2023/02/07 07:39:36;;;;;;;12.73;11.32;;;;;;;1.89;61.68;102477.84;10324411;28;20059;-69
2023/02/07 07:44:38;;;;;;;11.00;9.60;;;;;;;1.93;60.87;102482.16;10314590;28;20585;-70
2023/02/07 07:49:40;;;;;;;12.30;11.02;;;;;;;2.04;60.79;102489.97;10310692;28;20050;-69
2023/02/07 07:54:41;;;;;;;11.32;10.10;;;;;;;2.18;59.35;102487.22;10314801;28;21638;-69
2023/02/07 07:59:42;;;;;;;12.68;10.88;;;;;;;2.30;58.89;102491.47;10316865;28;20228;-69
2023/02/07 08:04:44;;;;;;;12.23;10.40;;;;;;;2.37;58.04;102498.44;10314474;28;20670;-69
2023/02/07 08:09:46;;;;;;;12.25;10.38;;;;;;;2.61;57.22;102501.66;10311773;28;20133;-69
2023/02/07 08:14:47;;;;;;;12.95;10.15;;;;;;;2.75;56.37;102493.63;10307853;28;20136;-67
2023/02/07 08:19:48;;;;;;;11.85;10.13;;;;;;;2.79;55.88;102490.94;10311933;28;20521;-67
2023/02/07 08:24:50;;;;;;;12.27;10.18;;;;;;;2.89;55.76;102485.56;10309815;28;20069;-67
2023/02/07 08:29:52;;;;;;;11.93;10.55;;;;;;;2.98;55.11;102493.31;10312915;28;20571;-68
2023/02/07 08:34:54;;;;;;;10.65;9.55;;;;;;;2.96;55.29;102498.59;10315019;28;20057;-68
2023/02/07 08:39:56;;;;;;;11.15;10.05;;;;;;;3.00;54.79;102509.94;10317018;28;20057;-68
2023/02/07 08:44:58;;;;;;;10.55;9.30;;;;;;;2.93;55.48;102516.22;10315136;28;20065;-68
2023/02/07 08:49:59;;;;;;;11.50;10.38;;;;;;;2.89;55.21;102511.88;10337652;28;20131;-68
2023/02/07 08:55:01;;;;;;;12.13;9.57;;;;;;;2.95;55.02;102509.16;10318632;28;20063;-67
2023/02/07 09:00:04;;;;;;;11.48;10.38;;;;;;;2.97;55.24;102510.00;10314656;28;20500;-69
2023/02/07 09:05:06;;;;;;;12.45;10.65;;;;;;;3.10;54.78;102511.59;10309441;28;20042;-67
2023/02/07 09:10:09;;;;;;;10.90;9.80;;;;;;;3.40;54.12;102508.56;10306625;28;20054;-68
2023/02/07 09:15:10;;;;;;;14.05;10.25;;;;;;;3.56;52.98;102511.81;10308670;28;20052;-66
2023/02/07 09:20:12;;;;;;;11.70;9.85;;;;;;;3.54;52.47;102496.03;10309435;28;20579;-68
2023/02/07 09:25:13;;;;;;;10.30;9.23;;;;;;;3.72;51.11;102500.16;10327239;28;20079;-68
2023/02/07 09:30:15;;;;;;;11.25;9.70;;;;;;;3.86;51.31;102503.44;10345378;28;20058;-69
2023/02/07 09:35:17;;;;;;;11.40;8.95;;;;;;;4.37;49.33;102488.53;10327061;28;21393;-68
2023/02/07 09:40:19;;;;;;;12.32;9.75;;;;;;;4.80;47.95;102476.25;10350355;28;20061;-69
2023/02/07 09:45:25;;;;;;;11.10;9.95;;;;;;;5.16;46.64;102469.28;10355521;28;20662;-70
2023/02/07 09:50:33;;;;;;;11.43;10.02;;;;;;;5.75;45.89;102483.75;10345878;28;20054;-69
2023/02/07 09:55:55;;;;;;;12.50;9.98;;;;;;;6.15;43.88;102477.50;10338741;28;20624;-69
2023/02/07 10:01:02;;;;;;;11.27;9.75;;;;;;;7.03;42.32;102489.16;10316337;28;20132;-67
2023/02/07 10:06:11;;;;;;;10.80;9.65;;;;;;;8.49;38.80;102475.53;10305351;28;20049;-68
2023/02/07 10:11:51;;;;;;;11.07;10.02;;;;;;;11.27;33.22;102479.03;10312413;28;20057;-69
2023/02/07 10:17:19;;;;;;;10.63;9.63;;;;;;;12.52;30.93;102472.75;10303820;28;20497;-68
2023/02/07 10:22:57;;;;;;;11.65;10.60;;;;;;;13.14;29.51;102466.75;10308147;28;20073;-70
2023/02/07 10:28:13;;;;;;;11.48;9.50;;;;;;;12.19;30.53;102468.28;10304439;28;20095;-69
2023/02/07 10:33:17;;;;;;;10.48;9.23;;;;;;;11.94;30.75;102460.66;10308063;28;20065;-70
2023/02/07 10:38:29;;;;;;;9.18;8.25;;;;;;;12.49;30.00;102454.22;10306141;28;21616;-68
2023/02/07 10:43:32;;;;;;;11.85;9.73;;;;;;;13.78;28.13;102452.34;10310400;28;20116;-66
2023/02/07 10:48:35;;;;;;;9.77;8.77;;;;;;;16.51;24.63;102444.59;10306566;28;20141;-68
2023/02/07 10:53:47;;;;;;;9.20;8.38;;;;;;;18.81;21.58;102448.84;10310639;28;20715;-68
2023/02/07 10:58:57;;;;;;;9.27;8.38;;;;;;;19.85;20.76;102443.06;10310306;28;20045;-67
2023/02/07 11:03:58;;;;;;;8.85;7.95;;;;;;;20.30;19.50;102440.91;10310671;28;20385;-69
2023/02/07 11:09:22;;;;;;;9.13;8.32;;;;;;;22.07;18.29;102433.97;10315388;28;20428;-69
2023/02/07 11:14:26;;;;;;;9.48;8.57;;;;;;;22.38;17.60;102445.47;10330029;28;20052;-69
2023/02/07 11:19:29;;;;;;;10.70;9.60;;;;;;;23.07;16.69;102431.53;10338417;28;20076;-72
2023/02/07 11:24:34;;;;;;;9.60;8.70;;;;;;;24.04;16.08;102431.75;10338255;28;20389;-68
2023/02/07 11:29:47;;;;;;;9.48;8.57;;;;;;;24.41;15.35;102426.03;10316441;28;20140;-67
2023/02/07 11:34:56;;;;;;;10.23;9.30;;;;;;;24.15;15.64;102415.16;10310889;28;20708;-68
2023/02/07 11:40:26;;;;;;;9.63;8.73;;;;;;;25.17;15.15;102420.66;10307086;28;20436;-68
2023/02/07 11:45:28;;;;;;;9.35;8.55;;;;;;;25.83;14.40;102420.72;10314716;28;20046;-68
2023/02/07 11:50:35;;;;;;;8.75;7.95;;;;;;;26.11;14.07;102422.06;10307210;28;20173;-68
2023/02/07 11:55:40;;;;;;;9.13;8.32;;;;;;;26.59;13.72;102413.03;10304894;28;20060;-67
2023/02/07 12:00:42;;;;;;;8.65;7.90;;;;;;;26.93;13.42;102417.31;10307153;28;20135;-68
2023/02/07 12:05:50;;;;;;;9.15;8.30;;;;;;;26.91;13.54;102413.91;10308896;28;20053;-70
2023/02/07 12:11:03;;;;;;;8.93;8.15;;;;;;;28.30;12.49;102397.31;10314082;28;20453;-68
2023/02/07 12:16:16;;;;;;;9.68;8.88;;;;;;;26.83;13.40;102397.56;10303060;28;20050;-69
2023/02/07 12:21:21;;;;;;;7.57;6.97;;;;;;;28.00;12.27;102389.16;10307123;28;20137;-69
2023/02/07 12:26:38;;;;;;;8.20;7.50;;;;;;;28.09;11.89;102385.28;10317683;28;20053;-68
2023/02/07 12:32:09;;;;;;;8.35;7.65;;;;;;;28.08;12.41;102386.31;10301394;28;25525;-69
2023/02/07 12:37:53;;;;;;;7.97;6.63;;;;;;;29.04;11.76;102372.53;10301473;28;20068;-68
2023/02/07 12:43:01;;;;;;;7.80;7.20;;;;;;;29.52;11.20;102371.09;10304035;28;20046;-69
2023/02/07 12:48:09;;;;;;;7.25;6.65;;;;;;;28.89;11.19;102364.38;10306173;28;20144;-71
2023/02/07 12:53:35;;;;;;;7.03;6.32;;;;;;;29.54;11.07;102360.75;10307920;28;20365;-71
2023/02/07 12:59:09;;;;;;;7.20;6.45;;;;;;;29.32;11.36;102357.19;10305372;28;20152;-70
2023/02/07 13:04:21;;;;;;;7.10;6.50;;;;;;;29.49;10.83;102349.56;10235459;28;20069;-70
2023/02/07 13:09:33;;;;;;;6.65;6.00;;;;;;;29.52;10.24;102340.91;10307776;28;20053;-72
2023/02/07 13:15:05;;;;;;;6.75;6.10;;;;;;;29.54;10.27;102342.41;10323032;28;20118;-71
2023/02/07 13:20:29;;;;;;;7.10;6.50;;;;;;;30.11;10.33;102329.47;10304235;28;20048;-71
2023/02/07 13:25:41;;;;;;;6.53;6.03;;;;;;;30.21;10.37;102331.84;10302137;28;20520;-71
2023/02/07 13:30:42;;;;;;;6.38;5.85;;;;;;;29.64;10.30;102333.00;10306667;28;20572;-71
2023/02/07 13:35:45;;;;;;;6.75;6.07;;;;;;;29.89;10.37;102328.75;10319610;28;20501;-70
2023/02/07 13:41:02;;;;;;;6.40;5.90;;;;;;;29.56;10.41;102326.59;10310499;28;20114;-70
2023/02/07 13:46:38;;;;;;;6.43;5.82;;;;;;;29.26;10.70;102337.75;10305221;28;20469;-69
2023/02/07 13:51:57;;;;;;;5.93;5.43;;;;;;;28.64;10.89;102332.91;10308264;28;20660;-69
2023/02/07 14:02:21;;;;;;;6.00;5.47;;;;;;;28.52;11.06;102324.31;10312301;28;20111;-72
2023/02/07 14:07:33;;;;;;;5.82;5.32;;;;;;;28.96;11.10;102320.59;10315886;28;22303;-69
2023/02/07 14:12:39;;;;;;;6.80;6.15;;;;;;;27.87;11.33;102316.72;10309419;28;20428;-68
2023/02/07 14:17:40;;;;;;;6.63;6.13;;;;;;;27.06;11.78;102330.13;10304159;28;20136;-70
2023/02/07 14:22:42;;;;;;;5.93;5.32;;;;;;;27.01;11.88;102327.09;10312975;28;20050;-68
2023/02/07 14:27:49;;;;;;;6.43;5.82;;;;;;;26.97;11.72;102318.38;10316994;28;20054;-72
2023/02/07 14:33:11;;;;;;;6.10;5.50;;;;;;;27.08;11.86;102314.41;10312738;28;20650;-70
2023/02/07 14:38:26;;;;;;;6.32;5.82;;;;;;;26.58;11.94;102308.38;10316489;28;20069;-71
2023/02/07 14:43:40;;;;;;;5.88;5.38;;;;;;;26.57;12.07;102308.56;10310962;28;21047;-69
2023/02/07 14:48:44;;;;;;;5.70;5.30;;;;;;;26.22;12.10;102298.00;10306536;28;20053;-71
2023/02/07 14:53:56;;;;;;;6.00;5.50;;;;;;;26.01;12.42;102301.34;10309338;28;20536;-69
2023/02/07 14:58:58;;;;;;;5.72;5.28;;;;;;;25.65;12.50;102309.09;10306673;28;20060;-69
2023/02/07 15:04:01;;;;;;;7.32;6.63;;;;;;;25.64;13.20;102316.44;10308580;28;20057;-67
2023/02/07 15:09:03;;;;;;;6.28;5.72;;;;;;;24.91;13.45;102317.28;10310362;28;20491;-72
2023/02/07 15:14:05;;;;;;;7.22;6.57;;;;;;;24.68;13.90;102313.34;10304518;28;20053;-68
2023/02/07 15:19:21;;;;;;;;;;;;;;;21.91;15.92;102319.84;10300186;28;20080;-68
2023/02/07 15:24:38;;;;;;;8.00;7.30;;;;;;;16.45;21.21;102324.06;10301079;28;19929;-71
2023/02/07 15:29:53;;;;;;;7.80;7.13;;;;;;;13.66;24.64;102311.25;10306169;28;20042;-69
2023/02/07 15:35:18;;;;;;;9.43;8.50;;;;;;;11.98;27.18;102321.63;10307747;28;20061;-69
2023/02/07 15:40:22;;;;;;;8.30;7.60;;;;;;;11.17;29.16;102316.03;10309301;28;20300;-67
2023/02/07 15:45:29;;;;;;;9.00;7.97;;;;;;;10.64;30.20;102314.19;10310395;28;20050;-69
2023/02/07 15:50:31;;;;;;;8.68;7.90;;;;;;;10.05;31.74;102314.19;10310319;28;20065;-67
2023/02/07 15:55:36;;;;;;;9.05;8.00;;;;;;;9.62;32.25;102316.09;10308924;28;20155;-69
2023/02/07 16:00:39;;;;;;;9.55;8.38;;;;;;;9.28;32.73;102328.19;10321109;28;20594;-69
2023/02/07 16:05:41;;;;;;;8.98;8.00;;;;;;;8.74;33.70;102317.97;10325123;28;20131;-69
2023/02/07 16:10:43;;;;;;;9.13;8.10;;;;;;;8.53;34.48;102337.38;10316074;28;20049;-71
2023/02/07 16:15:51;;;;;;;9.73;8.63;;;;;;;8.37;34.85;102327.31;10311503;28;20384;-69
2023/02/07 16:20:52;;;;;;;9.57;8.57;;;;;;;8.11;35.01;102331.81;10310791;28;20042;-72
2023/02/07 16:25:57;;;;;;;9.00;8.10;;;;;;;7.85;35.65;102337.22;10305088;28;20163;-70
2023/02/07 16:30:59;;;;;;;9.88;7.78;;;;;;;7.55;35.98;102325.00;10312044;28;20046;-71
2023/02/07 16:36:01;;;;;;;8.57;7.72;;;;;;;7.50;35.82;102347.28;10314252;28;20057;-69
2023/02/07 16:41:03;;;;;;;9.55;8.30;;;;;;;7.22;36.54;102345.53;10312440;28;20574;-69
2023/02/07 16:46:05;;;;;;;9.57;8.60;;;;;;;7.04;36.68;102354.94;10319813;28;20151;-71
2023/02/07 16:51:06;;;;;;;8.82;7.93;;;;;;;6.95;36.67;102350.84;10306216;28;20053;-70
2023/02/07 16:56:20;;;;;;;8.60;7.70;;;;;;;6.76;36.62;102357.63;10310692;28;20069;-68
2023/02/07 17:01:21;;;;;;;9.70;7.57;;;;;;;6.69;36.47;102365.72;10312798;28;20053;-67
2023/02/07 17:06:23;;;;;;;8.00;7.20;;;;;;;6.53;36.77;102362.69;10307114;28;20050;-68
2023/02/07 17:11:24;;;;;;;7.13;6.43;;;;;;;6.50;37.25;102368.06;10306487;28;20049;-69
2023/02/07 17:16:26;;;;;;;8.70;7.50;;;;;;;6.40;37.52;102371.03;10313041;28;20193;-70
2023/02/07 17:21:28;;;;;;;8.82;7.05;;;;;;;6.20;37.65;102367.19;10333206;28;20065;-69
2023/02/07 17:26:30;;;;;;;9.60;7.72;;;;;;;6.22;37.72;102378.59;10310188;28;20045;-68
2023/02/07 17:31:32;;;;;;;9.48;7.90;;;;;;;6.21;38.13;102378.63;10310202;28;21453;-69
2023/02/07 17:36:34;;;;;;;9.77;8.00;;;;;;;6.06;38.47;102377.28;10321066;28;20074;-70
2023/02/07 17:41:35;;;;;;;10.27;7.80;;;;;;;5.96;38.38;102372.22;10313326;28;20049;-68
2023/02/07 17:46:36;;;;;;;9.93;8.45;;;;;;;5.92;38.51;102385.56;10319387;28;20046;-69
2023/02/07 17:51:38;;;;;;;8.50;7.65;;;;;;;5.81;38.51;102394.63;10339232;28;20152;-70
2023/02/07 17:56:39;;;;;;;9.40;7.18;;;;;;;5.75;39.02;102383.34;10342498;28;20542;-66
2023/02/07 18:01:41;;;;;;;8.43;7.53;;;;;;;5.76;38.97;102383.28;10324828;28;20454;-70
2023/02/07 18:06:42;;;;;;;10.20;7.82;;;;;;;5.60;38.90;102385.50;10346187;28;20046;-70
2023/02/07 18:11:44;;;;;;;11.43;8.95;;;;;;;5.45;40.08;102381.47;10337603;28;20125;-68
2023/02/07 18:16:46;;;;;;;11.43;8.30;;;;;;;5.49;40.38;102376.97;10318568;28;20132;-69
2023/02/07 18:21:48;;;;;;;11.77;8.95;;;;;;;5.35;40.88;102379.09;10313269;28;20048;-69
2023/02/07 18:26:49;;;;;;;11.88;9.30;;;;;;;5.19;40.91;102381.22;10322075;28;20137;-72
2023/02/07 18:31:53;;;;;;;12.00;9.18;;;;;;;5.22;41.07;102384.66;10322221;28;20054;-67
2023/02/07 18:36:54;;;;;;;9.20;8.23;;;;;;;5.13;41.54;102391.03;10322792;28;20054;-67
2023/02/07 18:41:55;;;;;;;9.95;7.90;;;;;;;5.09;41.68;102388.50;10323477;28;20122;-68
2023/02/07 18:46:57;;;;;;;8.90;8.00;;;;;;;4.98;41.83;102385.25;10324769;28;20050;-66
2023/02/07 18:51:58;;;;;;;11.23;9.23;;;;;;;4.98;42.29;102396.66;10321357;28;20078;-68
2023/02/07 18:56:59;;;;;;;10.90;9.23;;;;;;;4.88;42.56;102397.75;10319508;28;20532;-68
2023/02/07 19:02:02;;;;;;;12.07;9.10;;;;;;;4.78;42.59;102399.75;10322142;28;20350;-69
2023/02/07 19:07:03;;;;;;;12.80;10.27;;;;;;;4.68;43.57;102404.34;10311851;28;20147;-68
2023/02/07 19:12:07;;;;;;;17.02;11.65;;;;;;;4.63;43.60;102400.09;10323250;28;20050;-70
2023/02/07 19:17:12;;;;;;;16.93;11.97;;;;;;;4.69;44.13;102394.69;10320242;28;20088;-70
2023/02/07 19:22:14;;;;;;;12.07;10.77;;;;;;;4.73;43.99;102393.72;10325935;28;20131;-71
2023/02/07 19:27:21;;;;;;;13.23;10.52;;;;;;;4.55;44.81;102406.38;10338881;28;20144;-68
2023/02/07 19:32:23;;;;;;;11.85;10.52;;;;;;;4.53;44.55;102399.41;10345912;28;20046;-68
2023/02/07 19:37:24;;;;;;;12.13;9.43;;;;;;;4.37;45.20;102406.78;10346750;28;20086;-69
2023/02/07 19:42:26;;;;;;;13.88;10.57;;;;;;;4.31;45.35;102407.75;10337918;28;20078;-70
2023/02/07 19:47:27;;;;;;;14.20;11.38;;;;;;;4.31;46.03;102404.22;10327927;28;20081;-73
2023/02/07 19:52:29;;;;;;;14.93;11.27;;;;;;;4.23;46.10;102405.28;10327384;28;20145;-70
2023/02/07 19:57:31;;;;;;;13.57;10.88;;;;;;;4.17;46.63;102408.00;10336417;28;20531;-70
2023/02/07 20:02:32;;;;;;;14.52;10.48;;;;;;;4.13;46.86;102421.28;10344070;28;20050;-71
2023/02/07 20:07:34;;;;;;;13.20;11.02;;;;;;;4.06;46.98;102410.00;10347246;28;20103;-72
2023/02/07 20:12:35;;;;;;;13.38;11.80;;;;;;;3.99;47.36;102411.00;10343549;28;20516;-66
2023/02/07 20:17:37;;;;;;;14.18;11.57;;;;;;;4.01;47.39;102412.72;10346844;28;20073;-71
2023/02/07 20:22:39;;;;;;;18.45;12.50;;;;;;;4.00;47.65;102421.50;10345188;28;20061;-71
2023/02/07 20:27:40;;;;;;;13.95;11.88;;;;;;;4.09;47.86;102409.94;10328225;28;20050;-74
2023/02/07 20:32:41;;;;;;;15.00;12.30;;;;;;;3.96;47.15;102413.69;10321415;28;20049;-71
2023/02/07 20:37:43;;;;;;;13.82;12.30;;;;;;;3.95;47.33;102425.13;10320221;28;20049;-71
2023/02/07 20:42:44;;;;;;;15.52;11.70;;;;;;;3.97;48.08;102412.81;10318956;28;20097;-70
2023/02/07 20:47:45;;;;;;;15.30;12.57;;;;;;;3.87;47.38;102420.00;10311725;28;20053;-68
2023/02/07 20:52:47;;;;;;;16.15;12.40;;;;;;;3.74;47.42;102422.00;10313946;28;20064;-71
2023/02/07 20:57:48;;;;;;;14.68;13.10;;;;;;;3.63;47.59;102422.16;10364598;23;20061;-74
2023/02/07 21:02:50;;;;;;;13.98;11.52;;;;;;;3.62;47.31;102428.34;10368573;28;20529;-70
2023/02/07 21:07:51;;;;;;;12.13;10.88;;;;;;;3.58;46.56;102425.78;10360551;28;20543;-69
2023/02/07 21:12:53;;;;;;;13.52;11.02;;;;;;;3.61;46.09;102417.81;10336197;28;20050;-69
2023/02/07 21:17:54;;;;;;;11.57;9.82;;;;;;;3.61;45.68;102420.47;10336015;28;20100;-71
2023/02/07 21:22:56;;;;;;;11.13;9.05;;;;;;;3.44;45.04;102410.19;10368342;28;20058;-72
2023/02/07 21:27:58;;;;;;;7.78;6.78;;;;;;;3.34;44.06;102420.00;10349951;28;20056;-74
2023/02/07 21:33:00;;;;;;;8.98;7.72;;;;;;;3.27;43.71;102419.25;10348876;28;20523;-72
2023/02/07 21:38:01;;;;;;;8.80;7.35;;;;;;;3.36;43.69;102412.94;10337718;28;20049;-71
2023/02/07 21:43:03;;;;;;;8.10;7.07;;;;;;;3.26;43.83;102411.34;10337155;28;20246;-70
2023/02/07 21:48:06;;;;;;;7.68;6.55;;;;;;;3.25;43.51;102404.34;10337478;28;20053;-71
2023/02/07 21:53:07;;;;;;;8.32;6.65;;;;;;;3.19;44.30;102407.94;10333750;28;20616;-69
2023/02/07 21:58:08;;;;;;;9.57;7.72;;;;;;;3.17;44.27;102407.09;10342733;28;20053;-69
2023/02/07 22:03:10;;;;;;;11.02;8.68;;;;;;;3.10;45.04;102411.56;10333323;28;20053;-70
2023/02/07 22:08:14;;;;;;;9.57;8.23;;;;;;;3.05;45.53;102423.06;10337874;28;20049;-68
2023/02/07 22:13:15;;;;;;;8.68;7.57;;;;;;;3.04;46.63;102400.28;10336846;28;20449;-72
2023/02/07 22:18:17;;;;;;;11.10;8.80;;;;;;;3.17;46.11;102396.59;10336433;28;20455;-69
2023/02/07 22:23:19;;;;;;;10.57;8.95;;;;;;;3.09;46.12;102394.06;10333715;28;20058;-70
2023/02/07 22:28:22;;;;;;;10.13;9.10;;;;;;;3.03;46.91;102395.91;10334097;28;20049;-69
2023/02/07 22:33:24;;;;;;;10.63;8.95;;;;;;;2.99;47.24;102400.34;10334581;28;20472;-69
2023/02/07 22:38:26;;;;;;;10.55;9.48;;;;;;;2.98;47.03;102385.44;10334704;28;20650;-72
2023/02/07 22:43:27;;;;;;;11.00;9.07;;;;;;;2.90;47.01;102364.53;10355867;28;20054;-73
2023/02/07 22:48:30;;;;;;;10.48;9.40;;;;;;;2.87;47.56;102374.19;10338802;28;20394;-71
2023/02/07 22:53:32;;;;;;;10.55;9.40;;;;;;;2.76;47.32;102369.09;10331613;28;20050;-69
2023/02/07 22:58:33;;;;;;;12.15;8.98;;;;;;;2.70;47.76;102379.72;10321153;28;20137;-71
2023/02/07 23:03:35;;;;;;;10.48;9.10;;;;;;;2.62;48.32;102377.19;10325792;28;20137;-73
2023/02/07 23:08:36;;;;;;;9.73;8.70;;;;;;;2.75;47.92;102373.50;10332797;28;20061;-72
2023/02/07 23:13:39;;;;;;;10.27;9.18;;;;;;;2.67;48.10;102379.75;10364961;28;20052;-73
2023/02/07 23:18:41;;;;;;;10.43;8.75;;;;;;;2.65;48.52;102371.88;10373728;28;20058;-73
2023/02/07 23:23:43;;;;;;;10.02;8.93;;;;;;;2.75;49.06;102370.00;10363350;28;20050;-71
2023/02/07 23:28:45;;;;;;;12.88;10.20;;;;;;;2.84;48.37;102375.13;10336414;28;20133;-72
2023/02/07 23:33:47;;;;;;;10.63;9.07;;;;;;;2.93;48.46;102392.56;10329240;28;20050;-71